Time;durP1;ratioP1;P1;durP2;ratioP2;P2;SDS_P1;SDS_P2;PMS_P1;PMS_P2;Temp;Humidity;BMP_temperature;BMP_pressure;BME280_temperature;BME280_humidity;BME280_pressure;Samples;Min_cycle;Max_cycle;Signal;HPM_P1;HPM_P2
2022/08/16 00:00:12;;;;;;;12.57;9.40;;;19.00;99.90;;;;;;4978321;28;20086;-88
2022/08/16 00:02:37;;;;;;;11.18;8.88;;;19.00;99.90;;;;;;4959950;28;20022;-90
2022/08/16 00:05:07;;;;;;;12.63;8.43;;;18.90;99.90;;;;;;4977222;28;20033;-89
2022/08/16 00:07:33;;;;;;;12.13;8.60;;;18.90;99.90;;;;;;4977098;28;20112;-89
2022/08/16 00:09:59;;;;;;;11.80;8.57;;;18.90;99.90;;;;;;4958899;28;20109;-89
2022/08/16 00:12:29;;;;;;;11.00;7.80;;;18.90;99.90;;;;;;4976428;28;20092;-89
2022/08/16 00:14:57;;;;;;;10.30;7.45;;;19.00;99.90;;;;;;4972740;28;20058;-90
2022/08/16 00:17:25;;;;;;;9.05;7.30;;;18.90;99.90;;;;;;4957433;28;20023;-90
2022/08/16 00:19:50;;;;;;;12.35;7.75;;;18.90;99.90;;;;;;4957691;28;20151;-91
2022/08/16 00:22:17;;;;;;;9.52;6.95;;;18.90;99.90;;;;;;4975656;28;20027;-89
2022/08/16 00:24:44;;;;;;;12.88;7.60;;;18.90;99.90;;;;;;4975188;28;20027;-91
2022/08/16 00:27:09;;;;;;;9.25;6.78;;;19.00;99.90;;;;;;4957457;28;20126;-89
2022/08/16 00:29:35;;;;;;;7.03;6.20;;;19.00;99.90;;;;;;4974876;28;20046;-86
2022/08/16 00:32:04;;;;;;;9.10;6.60;;;19.00;99.90;;;;;;4975405;28;20030;-90
2022/08/16 00:34:31;;;;;;;9.27;6.90;;;19.00;99.90;;;;;;4957281;28;20035;-89
2022/08/16 00:36:56;;;;;;;10.93;6.85;;;19.00;99.90;;;;;;4956797;28;20094;-88
2022/08/16 00:39:22;;;;;;;10.02;9.02;;;19.00;99.90;;;;;;4974447;28;20105;-89
2022/08/16 00:41:49;;;;;;;13.95;9.85;;;19.00;99.90;;;;;;4974684;28;20031;-86
2022/08/16 00:44:19;;;;;;;14.50;11.43;;;19.00;99.90;;;;;;4956915;28;20045;-87
2022/08/16 00:46:56;;;;;;;14.57;10.90;;;19.00;99.90;;;;;;4957378;28;20034;-86
2022/08/16 00:49:22;;;;;;;13.63;10.93;;;18.90;99.90;;;;;;4957042;28;20508;-88
2022/08/16 00:51:50;;;;;;;16.27;11.88;;;18.90;99.90;;;;;;4957049;28;20031;-87
2022/08/16 00:54:15;;;;;;;13.82;10.15;;;18.80;99.90;;;;;;4955862;28;20058;-88
2022/08/16 00:56:45;;;;;;;15.20;10.43;;;18.80;99.90;;;;;;4974338;28;20034;-88
2022/08/16 00:59:13;;;;;;;14.75;10.70;;;18.80;99.90;;;;;;4957220;28;20027;-88
2022/08/16 01:01:40;;;;;;;14.18;10.98;;;18.80;99.90;;;;;;4957051;28;20483;-87
2022/08/16 01:04:08;;;;;;;16.25;10.15;;;18.70;99.90;;;;;;4956662;28;20082;-87
2022/08/16 01:06:36;;;;;;;16.27;10.20;;;18.70;99.90;;;;;;4956399;28;20078;-88
2022/08/16 01:09:05;;;;;;;15.68;11.55;;;18.70;99.90;;;;;;4956843;28;20520;-86
2022/08/16 01:11:32;;;;;;;18.52;10.88;;;18.60;99.90;;;;;;4974157;28;20031;-88
2022/08/16 01:14:22;;;;;;;13.65;10.82;;;18.60;99.90;;;;;;4974783;28;20468;-88
2022/08/16 01:16:48;;;;;;;17.40;11.73;;;18.50;99.90;;;;;;4957226;28;20527;-88
2022/08/16 01:19:25;;;;;;;17.58;11.38;;;18.50;99.90;;;;;;4975817;28;20431;-88
2022/08/16 01:22:18;;;;;;;15.32;11.52;;;18.40;99.90;;;;;;4958867;28;20058;-87
2022/08/16 01:24:55;;;;;;;18.23;11.70;;;18.40;99.90;;;;;;4958708;28;20034;-88
2022/08/16 01:27:24;;;;;;;13.10;10.13;;;18.30;99.90;;;;;;4970875;28;20102;-89
2022/08/16 01:29:55;;;;;;;18.02;11.52;;;18.30;99.90;;;;;;4989484;28;20041;-87
2022/08/16 01:32:20;;;;;;;20.10;12.85;;;18.30;99.90;;;;;;4977178;28;20023;-88
2022/08/16 01:34:46;;;;;;;15.93;12.27;;;18.30;99.90;;;;;;4955861;28;20050;-88
2022/08/16 01:37:13;;;;;;;14.63;11.07;;;18.20;99.90;;;;;;4973556;28;20058;-86
2022/08/16 01:39:41;;;;;;;15.07;11.57;;;18.20;99.90;;;;;;4958329;28;20034;-87
2022/08/16 01:42:08;;;;;;;13.77;10.43;;;18.10;99.90;;;;;;4958944;28;20035;-87
2022/08/16 01:44:38;;;;;;;16.08;11.77;;;18.00;99.90;;;;;;4958295;28;20039;-87
2022/08/16 01:47:05;;;;;;;14.23;11.10;;;17.90;99.90;;;;;;4956901;28;20031;-87
2022/08/16 01:49:34;;;;;;;15.63;10.57;;;17.90;99.90;;;;;;4973490;28;20034;-87
2022/08/16 01:52:07;;;;;;;14.82;9.75;;;17.90;99.90;;;;;;4973400;28;20026;-87
2022/08/16 01:54:34;;;;;;;13.00;9.80;;;17.80;99.90;;;;;;4973225;28;20046;-87
2022/08/16 01:57:01;;;;;;;12.57;9.60;;;17.80;99.90;;;;;;4956488;28;20027;-86
2022/08/16 01:59:29;;;;;;;14.85;10.68;;;17.80;99.90;;;;;;4956784;28;20038;-89
2022/08/16 02:01:56;;;;;;;15.70;10.02;;;17.70;99.90;;;;;;4975423;28;20031;-87
2022/08/16 02:04:24;;;;;;;14.43;10.48;;;17.70;99.90;;;;;;4960023;28;20030;-88
2022/08/16 02:06:50;;;;;;;15.00;10.88;;;17.60;99.90;;;;;;4977895;28;20019;-86
2022/08/16 02:09:18;;;;;;;15.32;10.55;;;17.60;99.90;;;;;;4966529;28;20298;-87
2022/08/16 02:11:48;;;;;;;15.18;10.90;;;17.50;99.90;;;;;;4983959;28;20058;-88
2022/08/16 02:14:14;;;;;;;14.52;10.15;;;17.50;99.90;;;;;;4966390;28;20121;-89
2022/08/16 02:16:43;;;;;;;12.57;10.25;;;17.40;99.90;;;;;;4979861;28;20027;-89
2022/08/16 02:19:10;;;;;;;16.20;11.57;;;17.30;99.90;;;;;;4980338;28;20027;-87
2022/08/16 02:21:36;;;;;;;15.32;10.80;;;17.30;99.90;;;;;;4975382;28;20027;-89
2022/08/16 02:24:02;;;;;;;19.95;11.13;;;17.20;99.90;;;;;;4955755;28;20027;-88
2022/08/16 02:26:28;;;;;;;13.95;10.38;;;17.20;99.90;;;;;;4973754;28;20031;-88
2022/08/16 02:28:54;;;;;;;16.08;11.02;;;17.10;99.90;;;;;;4961178;28;20514;-89
2022/08/16 02:31:20;;;;;;;12.95;10.63;;;17.10;99.90;;;;;;4960374;28;20560;-89
2022/08/16 02:33:45;;;;;;;14.70;10.00;;;17.00;99.90;;;;;;4960639;28;20125;-87
2022/08/16 02:36:12;;;;;;;12.23;9.50;;;17.00;99.90;;;;;;4979462;28;20491;-88
2022/08/16 02:38:39;;;;;;;14.57;10.40;;;16.90;99.90;;;;;;4961374;28;20085;-86
2022/08/16 02:41:07;;;;;;;14.07;10.93;;;16.90;99.90;;;;;;4978593;28;20022;-86
2022/08/16 02:43:34;;;;;;;15.75;11.07;;;16.80;99.90;;;;;;4962079;28;20023;-88
2022/08/16 02:46:01;;;;;;;15.82;11.13;;;16.80;99.90;;;;;;4979174;28;20058;-87
2022/08/16 02:48:27;;;;;;;18.70;12.82;;;16.80;99.90;;;;;;4962116;28;20031;-86
2022/08/16 02:50:53;;;;;;;17.52;12.00;;;16.70;99.90;;;;;;4966458;28;20038;-86
2022/08/16 02:53:19;;;;;;;19.77;13.85;;;16.50;99.90;;;;;;4983504;28;20035;-87
2022/08/16 02:55:45;;;;;;;17.27;12.00;;;16.50;99.90;;;;;;4965501;28;20400;-86
2022/08/16 02:58:11;;;;;;;15.80;11.93;;;16.50;99.90;;;;;;4979306;28;20023;-86
2022/08/16 03:00:37;;;;;;;18.27;12.38;;;16.40;99.90;;;;;;4959682;28;20027;-86
2022/08/16 03:03:03;;;;;;;16.65;11.43;;;16.40;99.90;;;;;;4958203;28;20038;-86
2022/08/16 03:05:29;;;;;;;17.77;12.27;;;16.30;99.90;;;;;;4978636;28;20022;-86
2022/08/16 03:07:55;;;;;;;19.63;14.30;;;16.30;99.90;;;;;;4978412;28;20038;-87
2022/08/16 03:10:21;;;;;;;17.35;13.55;;;16.20;99.90;;;;;;4960782;28;20119;-88
2022/08/16 03:12:49;;;;;;;21.42;15.05;;;16.20;99.90;;;;;;4959693;28;20042;-87
2022/08/16 03:15:16;;;;;;;18.65;14.75;;;16.10;99.90;;;;;;4959139;28;20046;-86
2022/08/16 03:17:43;;;;;;;22.27;15.45;;;16.10;99.90;;;;;;4959565;28;20494;-89
2022/08/16 03:20:12;;;;;;;24.58;16.40;;;16.00;99.90;;;;;;4959394;28;20162;-86
2022/08/16 03:22:38;;;;;;;20.92;15.80;;;16.00;99.90;;;;;;4959064;28;20045;-86
2022/08/16 03:25:07;;;;;;;24.92;15.65;;;16.00;99.90;;;;;;4958807;28;20121;-87
2022/08/16 03:27:33;;;;;;;22.35;16.42;;;16.00;99.90;;;;;;4958808;28;20480;-88
2022/08/16 03:30:01;;;;;;;23.20;16.55;;;15.90;99.90;;;;;;4958922;28;20504;-86
2022/08/16 03:32:27;;;;;;;22.67;15.73;;;15.90;99.90;;;;;;4958240;28;20027;-88
2022/08/16 03:34:53;;;;;;;22.17;15.60;;;15.90;99.90;;;;;;4958383;28;20141;-87
2022/08/16 03:37:19;;;;;;;24.60;17.33;;;15.90;99.90;;;;;;4958929;28;20035;-87
2022/08/16 03:39:45;;;;;;;23.13;16.02;;;15.90;99.90;;;;;;4958564;28;20039;-86
2022/08/16 03:42:10;;;;;;;23.50;16.45;;;15.90;99.90;;;;;;4958869;28;20019;-86
2022/08/16 03:44:36;;;;;;;21.88;15.35;;;16.00;99.90;;;;;;4958480;28;20077;-86
2022/08/16 03:47:02;;;;;;;22.02;14.43;;;15.90;99.90;;;;;;4958463;28;20535;-88
2022/08/16 03:49:28;;;;;;;16.23;12.55;;;15.90;99.90;;;;;;4958099;28;20026;-87
2022/08/16 03:51:54;;;;;;;16.13;12.38;;;15.90;99.90;;;;;;4978101;28;20029;-88
2022/08/16 03:54:20;;;;;;;18.27;13.00;;;15.90;99.90;;;;;;4958555;28;20137;-87
2022/08/16 03:56:45;;;;;;;18.15;13.23;;;15.90;99.90;;;;;;4958216;28;20531;-87
2022/08/16 03:59:12;;;;;;;18.33;12.23;;;15.80;99.90;;;;;;4958042;28;20073;-86
2022/08/16 04:01:38;;;;;;;17.10;12.32;;;15.80;99.90;;;;;;4957303;28;20027;-87
2022/08/16 04:04:04;;;;;;;16.95;11.65;;;15.80;99.90;;;;;;4957573;28;20081;-87
2022/08/16 04:06:30;;;;;;;16.35;12.52;;;15.70;99.90;;;;;;4957573;28;20448;-88
2022/08/16 04:08:56;;;;;;;17.48;12.88;;;15.70;99.90;;;;;;4957398;28;20041;-87
2022/08/16 04:11:21;;;;;;;16.95;12.57;;;15.70;99.90;;;;;;4957102;28;20143;-87
2022/08/16 04:13:47;;;;;;;19.08;13.07;;;15.70;99.90;;;;;;4957645;28;20033;-88
2022/08/16 04:16:13;;;;;;;16.67;11.68;;;15.80;99.90;;;;;;4957581;28;20408;-88
2022/08/16 04:18:41;;;;;;;17.30;12.43;;;15.80;99.90;;;;;;4957337;28;20035;-88
2022/08/16 04:21:08;;;;;;;16.05;12.27;;;15.80;99.90;;;;;;4957700;28;20022;-87
2022/08/16 04:23:35;;;;;;;19.13;12.98;;;15.80;99.90;;;;;;4957634;28;20031;-88
2022/08/16 04:26:01;;;;;;;22.38;13.52;;;15.80;99.90;;;;;;4957203;28;20023;-88
2022/08/16 04:28:26;;;;;;;18.27;12.73;;;15.90;99.90;;;;;;4957777;28;20110;-87
2022/08/16 04:30:52;;;;;;;19.70;13.40;;;15.90;99.90;;;;;;4957154;28;20051;-90
2022/08/16 04:33:18;;;;;;;20.20;13.13;;;15.90;99.90;;;;;;4957836;28;20023;-88
2022/08/16 04:35:45;;;;;;;19.13;12.18;;;15.90;99.90;;;;;;4975065;28;20106;-88
2022/08/16 04:38:11;;;;;;;18.50;12.38;;;15.90;99.90;;;;;;4957539;28;20038;-89
2022/08/16 04:40:37;;;;;;;17.60;12.65;;;16.00;99.90;;;;;;4957700;28;20042;-88
2022/08/16 04:43:03;;;;;;;18.60;12.35;;;16.00;99.90;;;;;;4957061;28;20022;-87
2022/08/16 04:45:28;;;;;;;17.17;13.07;;;16.00;99.90;;;;;;4956938;28;20082;-88
2022/08/16 04:47:54;;;;;;;19.85;15.05;;;16.00;99.90;;;;;;4957327;28;20615;-87
2022/08/16 04:50:23;;;;;;;21.63;14.43;;;15.90;99.90;;;;;;4956595;28;20023;-88
2022/08/16 04:52:50;;;;;;;19.40;14.90;;;15.90;99.90;;;;;;4960543;28;20109;-86
2022/08/16 04:55:20;;;;;;;19.83;14.60;;;15.90;99.90;;;;;;4956596;28;20054;-87
2022/08/16 04:57:48;;;;;;;24.23;15.60;;;15.90;99.90;;;;;;4957466;28;20034;-88
2022/08/16 05:00:21;;;;;;;17.33;13.35;;;15.90;99.90;;;;;;4974108;28;20033;-87
2022/08/16 05:02:50;;;;;;;19.00;13.40;;;15.90;99.90;;;;;;4958207;28;20041;-87
2022/08/16 05:05:16;;;;;;;16.77;12.55;;;15.90;99.90;;;;;;4957224;28;20027;-87
2022/08/16 05:07:42;;;;;;;16.75;11.75;;;15.90;99.90;;;;;;4973945;28;20025;-86
2022/08/16 05:10:09;;;;;;;15.48;12.05;;;16.00;99.90;;;;;;4956570;28;20117;-87
2022/08/16 05:12:35;;;;;;;20.30;14.52;;;16.00;99.90;;;;;;4974125;28;20041;-87
2022/08/16 05:15:02;;;;;;;19.38;13.63;;;16.00;99.90;;;;;;4956653;28;20488;-86
2022/08/16 05:17:28;;;;;;;23.75;13.63;;;15.90;99.90;;;;;;4956722;28;20141;-87
2022/08/16 05:19:53;;;;;;;21.05;12.63;;;15.90;99.90;;;;;;4974318;28;20065;-87
2022/08/16 05:22:19;;;;;;;20.45;14.68;;;16.00;99.90;;;;;;4956646;28;20026;-86
2022/08/16 05:24:45;;;;;;;17.85;12.65;;;15.90;99.90;;;;;;4956272;28;20141;-87
2022/08/16 05:27:11;;;;;;;16.80;12.50;;;16.00;99.90;;;;;;4956693;28;20033;-87
2022/08/16 05:29:37;;;;;;;17.98;11.65;;;16.00;99.90;;;;;;4956141;28;20488;-87
2022/08/16 05:32:03;;;;;;;18.45;11.80;;;16.00;99.90;;;;;;4956178;28;20476;-86
2022/08/16 05:34:29;;;;;;;19.50;12.30;;;16.10;99.90;;;;;;4955969;28;20039;-86
2022/08/16 05:36:56;;;;;;;17.77;12.45;;;16.10;99.90;;;;;;4956355;28;20467;-87
2022/08/16 05:39:26;;;;;;;21.00;13.85;;;16.10;99.90;;;;;;4956060;28;20125;-87
2022/08/16 05:41:53;;;;;;;18.40;12.37;;;16.10;99.90;;;;;;4956781;28;20106;-87
2022/08/16 05:44:22;;;;;;;15.13;12.02;;;16.10;99.90;;;;;;4956434;28;20377;-86
2022/08/16 05:46:49;;;;;;;18.02;12.10;;;16.10;99.90;;;;;;4956915;28;20113;-86
2022/08/16 05:49:15;;;;;;;17.13;12.05;;;16.10;99.90;;;;;;4956845;28;20031;-86
2022/08/16 05:51:46;;;;;;;16.45;13.00;;;16.10;99.90;;;;;;4956199;28;20560;-86
2022/08/16 05:54:16;;;;;;;16.95;12.65;;;16.10;99.90;;;;;;4956221;28;20078;-86
2022/08/16 05:56:44;;;;;;;17.73;11.90;;;16.10;99.90;;;;;;4964853;28;20046;-87
2022/08/16 05:59:12;;;;;;;17.80;13.32;;;16.10;99.90;;;;;;4965405;28;20117;-87
2022/08/16 06:01:39;;;;;;;18.85;12.82;;;16.00;99.90;;;;;;4964718;28;20053;-87
2022/08/16 06:04:07;;;;;;;18.15;13.57;;;16.00;99.90;;;;;;4967145;28;20031;-88
2022/08/16 06:06:33;;;;;;;18.08;13.90;;;16.00;99.90;;;;;;4963916;28;20023;-87
2022/08/16 06:08:59;;;;;;;17.00;13.10;;;15.90;99.90;;;;;;4962379;28;20035;-88
2022/08/16 06:11:24;;;;;;;22.02;14.23;;;15.90;99.90;;;;;;4961000;28;20022;-87
2022/08/16 06:13:50;;;;;;;18.30;13.93;;;15.80;99.90;;;;;;4979123;28;20507;-87
2022/08/16 06:16:16;;;;;;;16.35;12.35;;;15.80;99.90;;;;;;4963483;28;20026;-87
2022/08/16 06:18:43;;;;;;;19.27;14.10;;;15.80;99.90;;;;;;4964958;28;20465;-87
2022/08/16 06:21:11;;;;;;;17.52;12.85;;;15.80;99.90;;;;;;4965507;28;20031;-88
2022/08/16 06:23:36;;;;;;;20.52;14.98;;;15.80;99.90;;;;;;4967808;28;20095;-87
2022/08/16 06:26:03;;;;;;;19.38;14.00;;;15.80;99.90;;;;;;4970661;28;20019;-86
2022/08/16 06:28:28;;;;;;;19.52;13.80;;;15.80;99.90;;;;;;4969994;28;20468;-88
2022/08/16 06:30:54;;;;;;;24.50;14.75;;;15.80;99.90;;;;;;4968180;28;20035;-87
2022/08/16 06:33:20;;;;;;;20.65;14.73;;;15.70;99.90;;;;;;4965716;28;20082;-88
2022/08/16 06:35:46;;;;;;;26.92;16.25;;;15.60;99.90;;;;;;4966165;28;20034;-86
2022/08/16 06:38:11;;;;;;;21.00;15.07;;;15.60;99.90;;;;;;4962805;28;20500;-87
2022/08/16 06:40:43;;;;;;;20.42;13.40;;;15.60;99.90;;;;;;4978889;28;20031;-87
2022/08/16 06:43:08;;;;;;;18.65;13.98;;;15.60;99.90;;;;;;4968460;28;20023;-88
2022/08/16 06:45:36;;;;;;;27.08;15.15;;;15.70;99.90;;;;;;4963801;28;20057;-88
2022/08/16 06:48:04;;;;;;;19.92;14.25;;;15.70;99.90;;;;;;4960952;28;20030;-88
2022/08/16 06:50:31;;;;;;;16.80;13.48;;;15.80;99.90;;;;;;4962124;28;20034;-87
2022/08/16 06:52:57;;;;;;;20.35;13.52;;;15.90;99.90;;;;;;4960779;28;20030;-88
2022/08/16 06:55:23;;;;;;;16.75;12.13;;;16.00;99.90;;;;;;4960125;28;20046;-87
2022/08/16 06:57:51;;;;;;;19.05;11.82;;;16.00;99.90;;;;;;4963356;28;20098;-88
2022/08/16 07:00:17;;;;;;;17.95;11.60;;;16.10;99.90;;;;;;4960037;28;20026;-87
2022/08/16 07:02:44;;;;;;;18.65;11.95;;;16.20;99.90;;;;;;4960770;28;20113;-89
2022/08/16 07:05:12;;;;;;;20.15;11.77;;;16.30;99.90;;;;;;4960185;28;20019;-90
2022/08/16 07:07:39;;;;;;;18.08;12.48;;;16.40;99.90;;;;;;4960062;28;20018;-89
2022/08/16 07:10:08;;;;;;;19.08;13.18;;;16.50;99.90;;;;;;4960780;28;20045;-89
2022/08/16 07:12:34;;;;;;;19.88;13.02;;;16.60;99.90;;;;;;4961367;28;20035;-89
2022/08/16 07:15:00;;;;;;;18.08;13.70;;;16.70;99.90;;;;;;4961496;28;20049;-88
2022/08/16 07:17:26;;;;;;;17.38;12.27;;;16.80;99.90;;;;;;4961609;28;20047;-85
2022/08/16 07:19:53;;;;;;;16.23;11.02;;;16.90;99.90;;;;;;4963321;28;20042;-88
2022/08/16 07:22:20;;;;;;;16.58;11.73;;;17.00;99.90;;;;;;4965205;28;20026;-87
2022/08/16 07:24:46;;;;;;;13.85;10.25;;;17.10;99.90;;;;;;4961437;28;20114;-87
2022/08/16 07:27:11;;;;;;;12.70;9.95;;;17.20;99.90;;;;;;4961343;28;20030;-87
2022/08/16 07:29:38;;;;;;;12.27;8.73;;;17.30;99.90;;;;;;4976730;28;20122;-88
2022/08/16 07:32:05;;;;;;;16.05;9.48;;;17.40;99.90;;;;;;4967406;28;20026;-85
2022/08/16 07:34:31;;;;;;;13.13;8.48;;;17.50;99.90;;;;;;4978391;28;20015;-87
2022/08/16 07:36:59;;;;;;;12.85;8.90;;;17.60;99.90;;;;;;4970335;28;20037;-87
2022/08/16 07:39:25;;;;;;;12.90;9.32;;;17.60;99.90;;;;;;4963483;28;20031;-86
2022/08/16 07:41:51;;;;;;;9.85;8.13;;;17.70;99.90;;;;;;4963866;28;20031;-86
2022/08/16 07:44:16;;;;;;;10.70;7.32;;;17.80;99.90;;;;;;4961666;28;20027;-88
2022/08/16 07:46:42;;;;;;;9.85;7.93;;;17.90;99.90;;;;;;4962808;28;20027;-87
2022/08/16 07:49:08;;;;;;;8.35;6.68;;;18.00;99.90;;;;;;4962140;28;20171;-87
2022/08/16 07:51:35;;;;;;;8.35;7.25;;;18.10;99.90;;;;;;4964269;28;20031;-90
2022/08/16 07:54:06;;;;;;;7.50;6.00;;;18.10;99.90;;;;;;4965271;28;20062;-90
2022/08/16 07:56:32;;;;;;;7.72;5.53;;;18.20;99.90;;;;;;4964388;28;20033;-91
2022/08/16 07:58:58;;;;;;;8.35;6.00;;;18.30;99.90;;;;;;4965668;28;20098;-90
2022/08/16 08:01:24;;;;;;;9.73;5.63;;;18.40;99.90;;;;;;4966732;28;20023;-88
2022/08/16 08:03:51;;;;;;;7.80;5.60;;;18.60;99.90;;;;;;4964202;28;20061;-87
2022/08/16 08:06:19;;;;;;;7.85;6.47;;;18.60;99.90;;;;;;4965522;28;20038;-89
2022/08/16 08:08:45;;;;;;;7.53;5.68;;;18.70;99.90;;;;;;4959919;28;20027;-90
2022/08/16 08:11:12;;;;;;;6.78;5.10;;;18.80;99.90;;;;;;4971169;28;20038;-89
2022/08/16 08:13:37;;;;;;;7.13;5.78;;;18.90;99.90;;;;;;4972103;28;20035;-87
2022/08/16 08:16:04;;;;;;;10.80;5.65;;;19.00;99.90;;;;;;4957979;28;20069;-87
2022/08/16 08:18:29;;;;;;;6.40;4.78;;;19.20;99.90;;;;;;4991009;28;20022;-89
2022/08/16 08:20:56;;;;;;;7.20;5.00;;;19.30;99.90;;;;;;4948081;28;20054;-87
2022/08/16 08:23:22;;;;;;;7.07;4.75;;;19.40;99.90;;;;;;4962540;28;20087;-91
2022/08/16 08:25:48;;;;;;;5.78;4.72;;;19.50;99.90;;;;;;4967956;28;20027;-89
2022/08/16 08:28:15;;;;;;;11.43;5.15;;;19.50;99.90;;;;;;4968365;28;20027;-89
2022/08/16 08:30:41;;;;;;;8.55;4.60;;;19.50;99.90;;;;;;4968784;28;20117;-89
2022/08/16 08:33:06;;;;;;;5.45;4.28;;;19.50;99.90;;;;;;4968745;28;20066;-90
2022/08/16 08:35:33;;;;;;;6.28;4.63;;;19.50;99.90;;;;;;4968748;28;20034;-91
2022/08/16 08:38:00;;;;;;;7.28;4.72;;;19.50;99.90;;;;;;4967141;28;20027;-90
2022/08/16 08:40:28;;;;;;;7.63;4.95;;;19.60;99.90;;;;;;4967215;28;20096;-90
2022/08/16 08:42:55;;;;;;;7.97;4.70;;;19.60;99.90;;;;;;4967546;28;20019;-90
2022/08/16 08:45:21;;;;;;;5.63;4.30;;;19.60;99.90;;;;;;4967148;28;20089;-89
2022/08/16 08:47:48;;;;;;;8.25;4.40;;;19.70;99.90;;;;;;4966132;28;20031;-90
2022/08/16 08:50:15;;;;;;;5.22;4.55;;;19.70;99.90;;;;;;4965799;28;20058;-90
2022/08/16 08:52:42;;;;;;;4.68;4.05;;;19.80;99.90;;;;;;4966755;28;20035;-90
2022/08/16 08:55:11;;;;;;;7.78;4.63;;;19.80;99.90;;;;;;4967882;28;20057;-89
2022/08/16 08:57:46;;;;;;;6.40;4.97;;;19.90;99.90;;;;;;4968394;28;20055;-88
2022/08/16 09:00:14;;;;;;;5.78;4.18;;;20.00;99.90;;;;;;4970515;28;20030;-88
2022/08/16 09:02:42;;;;;;;7.72;4.72;;;20.00;99.90;;;;;;4972024;28;20059;-88
2022/08/16 09:05:08;;;;;;;7.22;4.97;;;20.20;99.90;;;;;;4965688;28;20055;-86
2022/08/16 09:07:36;;;;;;;7.07;4.85;;;20.30;99.90;;;;;;4951332;29;20027;-88
2022/08/16 09:10:02;;;;;;;6.10;4.72;;;20.40;99.90;;;;;;4949859;29;20031;-87
2022/08/16 09:12:28;;;;;;;7.55;4.72;;;20.40;99.90;;;;;;4952748;29;20024;-90
2022/08/16 09:14:54;;;;;;;5.63;4.50;;;20.50;99.90;;;;;;4960760;28;20058;-89
2022/08/16 09:17:19;;;;;;;6.57;5.22;;;20.60;99.90;;;;;;4967556;28;20026;-89
2022/08/16 09:19:45;;;;;;;7.47;4.63;;;20.70;99.90;;;;;;4960511;28;20404;-89
2022/08/16 09:22:11;;;;;;;8.82;5.63;;;20.80;99.90;;;;;;4964624;28;20049;-88
2022/08/16 09:24:37;;;;;;;9.27;5.25;;;20.80;99.90;;;;;;4963176;29;20133;-89
2022/08/16 09:27:04;;;;;;;10.00;5.38;;;20.90;99.90;;;;;;4965186;28;20024;-90
2022/08/16 09:29:30;;;;;;;5.45;4.72;;;20.80;99.90;;;;;;4942456;28;20031;-89
2022/08/16 09:31:57;;;;;;;9.02;4.97;;;20.90;99.90;;;;;;4958789;28;20030;-89
2022/08/16 09:34:24;;;;;;;6.65;4.82;;;21.00;99.90;;;;;;4961200;29;20027;-90
2022/08/16 09:36:49;;;;;;;8.18;5.38;;;21.10;99.90;;;;;;4963969;28;20437;-88
2022/08/16 09:39:16;;;;;;;7.35;4.75;;;21.20;99.90;;;;;;4963718;29;20054;-89
2022/08/16 09:41:48;;;;;;;8.52;5.32;;;21.30;99.90;;;;;;4963815;28;20037;-88
2022/08/16 09:44:15;;;;;;;8.48;5.22;;;21.50;99.40;;;;;;4963308;28;20075;-90
2022/08/16 09:46:41;;;;;;;7.32;5.18;;;21.60;98.90;;;;;;4958373;28;20030;-89
2022/08/16 09:49:07;;;;;;;9.77;4.70;;;21.70;98.50;;;;;;4958973;28;20030;-89
2022/08/16 09:51:33;;;;;;;5.13;4.28;;;21.90;98.20;;;;;;4975808;28;20060;-89
2022/08/16 09:53:58;;;;;;;4.55;4.13;;;22.10;97.50;;;;;;4958055;28;20137;-89
2022/08/16 09:56:30;;;;;;;6.53;4.03;;;22.20;97.00;;;;;;4956172;28;20027;-87
2022/08/16 09:58:59;;;;;;;5.47;3.90;;;22.20;96.30;;;;;;4974465;28;20034;-90
2022/08/16 10:01:25;;;;;;;4.53;4.07;;;22.30;96.00;;;;;;4957346;28;20035;-88
2022/08/16 10:03:52;;;;;;;6.40;4.00;;;22.40;95.50;;;;;;4957841;28;20027;-88
2022/08/16 10:06:20;;;;;;;8.05;4.25;;;22.60;95.00;;;;;;4959622;28;20153;-90
2022/08/16 10:08:47;;;;;;;5.38;3.92;;;22.60;94.40;;;;;;4959394;28;20055;-90
2022/08/16 10:14:07;;;;;;;9.63;3.78;;;22.60;93.70;;;;;;4947355;28;20062;-89
2022/08/16 10:16:36;;;;;;;4.78;3.40;;;22.80;93.60;;;;;;4963362;28;20169;-90
2022/08/16 10:19:02;;;;;;;6.90;4.78;;;22.90;92.80;;;;;;4959374;28;20019;-89
2022/08/16 10:21:27;;;;;;;4.47;3.35;;;23.00;92.30;;;;;;4959648;28;20042;-90
2022/08/16 10:23:53;;;;;;;5.55;3.67;;;23.10;91.90;;;;;;4959266;28;20523;-90
2022/08/16 10:26:23;;;;;;;4.55;3.58;;;23.10;91.50;;;;;;4960347;28;20023;-89
2022/08/16 10:28:49;;;;;;;6.32;4.03;;;23.30;91.20;;;;;;4960765;28;20035;-90
2022/08/16 10:31:14;;;;;;;6.75;3.60;;;23.50;90.80;;;;;;4961488;28;20038;-89
2022/08/16 10:33:40;;;;;;;5.05;3.50;;;23.70;90.50;;;;;;4986563;28;20031;-90
2022/08/16 10:36:07;;;;;;;6.72;3.95;;;23.90;90.00;;;;;;4968612;28;20030;-91
2022/08/16 10:38:36;;;;;;;4.07;3.33;;;24.10;88.60;;;;;;4969152;28;20074;-90
2022/08/16 10:41:04;;;;;;;4.43;3.47;;;24.30;87.10;;;;;;4974141;28;20023;-91
2022/08/16 10:43:30;;;;;;;4.82;3.63;;;24.50;85.60;;;;;;4974854;28;20262;-89
2022/08/16 10:45:56;;;;;;;10.35;3.80;;;24.70;84.40;;;;;;4973966;28;20085;-91
2022/08/16 10:48:22;;;;;;;5.63;3.45;;;24.90;83.00;;;;;;4969765;28;20027;-89
2022/08/16 10:50:48;;;;;;;5.97;3.30;;;25.10;82.20;;;;;;4966696;28;20086;-90
2022/08/16 10:53:16;;;;;;;7.82;3.60;;;25.30;81.30;;;;;;4979009;28;20387;-90
2022/08/16 10:55:42;;;;;;;4.80;3.30;;;25.40;79.60;;;;;;4981828;28;20173;-90
2022/08/16 10:58:12;;;;;;;3.42;3.00;;;25.40;78.80;;;;;;4963647;28;20019;-91
2022/08/16 11:00:39;;;;;;;3.47;3.08;;;25.30;77.50;;;;;;4963857;28;20054;-91
2022/08/16 11:03:06;;;;;;;4.05;3.55;;;25.30;77.00;;;;;;4965449;28;20035;-90
2022/08/16 11:05:34;;;;;;;5.13;3.03;;;25.40;76.90;;;;;;4969148;28;20122;-90
2022/08/16 11:08:01;;;;;;;3.75;2.83;;;25.40;76.20;;;;;;4977206;28;20031;-89
2022/08/16 11:10:33;;;;;;;5.38;3.53;;;25.40;75.90;;;;;;4969436;28;20030;-90
2022/08/16 11:12:59;;;;;;;3.47;3.05;;;25.30;75.80;;;;;;4970407;28;20620;-90
2022/08/16 11:15:26;;;;;;;4.20;2.97;;;25.30;75.70;;;;;;4993683;28;20050;-89
2022/08/16 11:17:53;;;;;;;4.07;3.10;;;25.30;75.10;;;;;;4976145;28;20050;-88
2022/08/16 11:20:20;;;;;;;5.72;3.40;;;25.20;74.80;;;;;;4972624;28;20073;-89
2022/08/16 11:22:48;;;;;;;4.15;3.20;;;25.10;74.60;;;;;;4974649;28;20065;-89
2022/08/16 11:25:18;;;;;;;10.23;3.10;;;25.00;74.80;;;;;;4972915;28;20030;-89
2022/08/16 11:27:45;;;;;;;4.85;3.20;;;24.90;75.50;;;;;;4968388;28;20062;-90
2022/08/16 11:30:13;;;;;;;5.45;3.80;;;24.90;74.90;;;;;;4968023;28;20543;-89
2022/08/16 11:32:43;;;;;;;5.40;2.88;;;24.80;74.90;;;;;;4968676;28;20035;-91
2022/08/16 11:35:15;;;;;;;5.40;2.90;;;24.70;75.20;;;;;;4969749;28;20058;-91
2022/08/16 11:37:51;;;;;;;3.75;3.00;;;24.70;75.50;;;;;;4969448;28;20027;-91
2022/08/16 11:40:17;;;;;;;4.63;3.30;;;24.60;75.90;;;;;;4968348;28;20038;-92
2022/08/16 11:42:43;;;;;;;6.53;3.20;;;24.70;75.90;;;;;;4967750;28;20033;-91
2022/08/16 11:45:10;;;;;;;3.75;3.22;;;24.70;75.70;;;;;;4968157;28;20110;-90
2022/08/16 11:47:36;;;;;;;3.53;2.92;;;24.70;75.40;;;;;;4983566;28;20053;-90
2022/08/16 11:50:07;;;;;;;8.52;3.60;;;24.80;75.40;;;;;;4965409;28;20027;-91
2022/08/16 11:52:34;;;;;;;4.85;3.33;;;24.90;75.00;;;;;;4970336;28;20050;-92
2022/08/16 11:55:00;;;;;;;8.95;3.70;;;25.00;75.00;;;;;;4971569;28;20082;-93
2022/08/16 11:57:25;;;;;;;4.88;3.70;;;25.10;74.90;;;;;;4971882;28;20031;-91
2022/08/16 11:59:51;;;;;;;5.13;3.38;;;25.30;74.80;;;;;;4969498;28;20086;-89
2022/08/16 12:02:17;;;;;;;4.40;3.33;;;25.50;74.50;;;;;;4969476;28;20030;-91
2022/08/16 12:04:43;;;;;;;5.85;3.15;;;25.50;73.90;;;;;;4970173;28;20027;-91
2022/08/16 12:07:11;;;;;;;4.45;3.55;;;25.60;73.60;;;;;;4973824;28;20022;-90
2022/08/16 12:09:37;;;;;;;3.20;2.45;;;25.80;72.90;;;;;;4978237;28;20023;-92
2022/08/16 12:12:03;;;;;;;6.07;3.33;;;25.80;72.40;;;;;;4993757;28;20083;-91
2022/08/16 12:14:31;;;;;;;4.65;3.00;;;25.90;72.20;;;;;;4974586;28;20050;-89
2022/08/16 12:16:59;;;;;;;5.15;3.05;;;25.90;71.80;;;;;;4969077;28;20506;-91
2022/08/16 12:19:25;;;;;;;4.82;2.83;;;26.20;71.60;;;;;;4966842;28;20037;-88
2022/08/16 12:21:51;;;;;;;5.88;3.70;;;26.50;71.20;;;;;;4966298;28;20031;-90
2022/08/16 12:24:16;;;;;;;6.32;3.05;;;26.80;70.30;;;;;;4967156;28;20030;-91
2022/08/16 12:26:42;;;;;;;4.35;3.20;;;27.00;69.60;;;;;;4964817;28;20031;-90
2022/08/16 12:29:08;;;;;;;3.88;2.92;;;27.20;69.20;;;;;;4966742;28;20027;-89
2022/08/16 12:31:34;;;;;;;4.55;2.90;;;27.30;68.50;;;;;;4980566;28;20027;-90
2022/08/16 12:34:01;;;;;;;5.13;3.03;;;27.40;68.10;;;;;;4964847;28;20062;-90
2022/08/16 12:36:27;;;;;;;4.72;2.80;;;27.50;67.50;;;;;;4965298;28;20086;-90